Time;durP1;ratioP1;P1;durP2;ratioP2;P2;SDS_P1;SDS_P2;PMS_P1;PMS_P2;Temp;Humidity;BMP_temperature;BMP_pressure;BME280_temperature;BME280_humidity;BME280_pressure;Samples;Min_cycle;Max_cycle;Signal;HPM_P1;HPM_P2
2022/07/03 00:01:36;;;;;;;12.82;8.80;;;;;;;22.87;63.27;95081.44;4140687;28;20058;-65
2022/07/03 00:03:38;;;;;;;9.52;8.02;;;;;;;22.90;63.24;95075.63;4128284;28;20066;-66
2022/07/03 00:05:40;;;;;;;9.88;8.88;;;;;;;22.88;63.19;95075.03;4137824;28;20080;-64
2022/07/03 00:07:42;;;;;;;11.85;8.70;;;;;;;22.95;63.09;95082.97;4133186;28;20062;-65
2022/07/03 00:09:43;;;;;;;12.07;9.25;;;;;;;22.99;62.88;95089.47;4141922;28;20065;-65
2022/07/03 00:11:45;;;;;;;9.68;7.88;;;;;;;23.07;62.95;95091.88;4129672;28;20480;-65
2022/07/03 00:13:47;;;;;;;12.35;9.18;;;;;;;22.99;63.02;95086.81;4129086;28;20054;-65
2022/07/03 00:15:49;;;;;;;12.73;8.65;;;;;;;22.80;63.54;95080.72;4129097;28;20116;-65
2022/07/03 00:17:51;;;;;;;13.35;9.25;;;;;;;22.28;65.17;95094.50;4138174;28;20045;-65
2022/07/03 00:19:54;;;;;;;13.77;9.85;;;;;;;21.68;67.71;95095.03;4130427;28;20058;-65
2022/07/03 00:21:57;;;;;;;11.30;9.23;;;;;;;21.72;67.95;95083.94;4142588;28;20047;-65
2022/07/03 00:24:08;;;;;;;13.40;9.95;;;;;;;21.89;67.52;95079.66;4128212;28;20120;-64
2022/07/03 00:26:14;;;;;;;13.02;9.88;;;;;;;22.09;67.11;95090.13;4128121;28;20058;-65
2022/07/03 00:28:19;;;;;;;13.45;10.38;;;;;;;22.24;66.29;95087.97;4127124;28;20470;-65
2022/07/03 00:30:21;;;;;;;11.32;9.85;;;;;;;22.39;65.73;95087.59;4128036;28;20065;-67
2022/07/03 00:32:24;;;;;;;12.95;9.95;;;;;;;22.48;65.62;95088.91;4130942;28;20077;-64
2022/07/03 00:34:26;;;;;;;12.18;10.13;;;;;;;22.54;65.26;95091.72;4137909;28;20050;-65
2022/07/03 00:36:34;;;;;;;12.90;9.88;;;;;;;22.60;64.95;95080.16;4139437;28;20061;-66
2022/07/03 00:38:36;;;;;;;14.98;10.65;;;;;;;22.63;64.67;95069.84;4138927;28;20128;-64
2022/07/03 00:40:38;;;;;;;15.07;10.50;;;;;;;22.67;64.91;95065.69;4142226;28;20061;-66
2022/07/03 00:42:39;;;;;;;16.40;10.23;;;;;;;22.69;64.89;95066.28;4131917;28;20627;-65
2022/07/03 00:44:46;;;;;;;11.10;9.93;;;;;;;22.65;64.98;95065.09;4145212;28;20387;-65
2022/07/03 00:46:51;;;;;;;16.17;10.48;;;;;;;22.72;64.57;95064.19;4144651;28;20413;-65
2022/07/03 00:48:55;;;;;;;12.70;9.90;;;;;;;22.75;64.75;95067.22;4128258;28;20517;-66
2022/07/03 00:50:59;;;;;;;11.25;9.93;;;;;;;22.78;64.68;95065.94;4130976;28;20083;-67
2022/07/03 00:53:04;;;;;;;13.52;9.98;;;;;;;22.77;64.51;95062.47;4144894;28;20053;-65
2022/07/03 00:55:08;;;;;;;15.98;10.82;;;;;;;22.79;64.78;95065.72;4135834;28;20089;-65
2022/07/03 00:57:15;;;;;;;13.85;11.05;;;;;;;22.39;65.85;95068.06;4129127;28;20532;-65
2022/07/03 00:59:17;;;;;;;14.98;11.45;;;;;;;21.41;69.27;95067.78;4127851;28;20058;-63
2022/07/03 01:01:19;;;;;;;13.10;11.52;;;;;;;21.17;70.15;95064.03;4128943;28;20378;-65
2022/07/03 01:03:25;;;;;;;12.63;11.43;;;;;;;21.06;70.71;95051.44;4126714;28;20505;-67
2022/07/03 01:05:30;;;;;;;13.05;11.73;;;;;;;20.92;71.19;95045.34;4127659;28;20484;-65
2022/07/03 01:07:31;;;;;;;15.13;11.15;;;;;;;20.83;71.97;95050.13;4128201;28;20061;-66
2022/07/03 01:09:53;;;;;;;16.67;12.35;;;;;;;20.77;71.57;95045.66;4141526;28;20062;-65
2022/07/03 01:12:03;;;;;;;13.02;11.70;;;;;;;20.56;72.52;95044.09;4151103;28;20057;-65
2022/07/03 01:14:18;;;;;;;16.10;12.30;;;;;;;20.67;72.43;95039.97;4153198;28;20051;-65
2022/07/03 01:16:30;;;;;;;13.82;11.88;;;;;;;20.69;72.03;95043.22;4130768;28;20117;-66
2022/07/03 01:18:42;;;;;;;14.45;11.30;;;;;;;20.54;72.98;95045.34;4136417;28;20434;-65
2022/07/03 01:21:07;;;;;;;14.95;11.10;;;;;;;20.59;72.71;95037.56;4139437;28;20050;-65
2022/07/03 01:23:20;;;;;;;16.77;12.68;;;;;;;20.66;72.39;95046.34;4132375;28;20049;-65
2022/07/03 01:25:45;;;;;;;14.55;12.32;;;;;;;20.84;72.18;95042.94;4134713;28;20112;-67
2022/07/03 01:27:59;;;;;;;15.05;11.82;;;;;;;21.05;71.05;95049.78;4138135;28;20485;-66
2022/07/03 01:30:07;;;;;;;12.43;10.75;;;;;;;21.30;70.14;95043.66;4149073;28;20104;-64
2022/07/03 01:32:11;;;;;;;14.32;11.18;;;;;;;21.51;69.68;95047.81;4130766;28;20061;-65
2022/07/03 01:34:16;;;;;;;13.55;10.25;;;;;;;21.66;68.64;95038.47;4139232;28;20112;-64
2022/07/03 01:36:22;;;;;;;14.52;11.20;;;;;;;21.80;68.02;95046.31;4141922;28;20046;-65
2022/07/03 01:38:27;;;;;;;13.45;10.65;;;;;;;21.89;68.02;95043.13;4128305;28;20054;-64
2022/07/03 01:40:29;;;;;;;14.18;10.55;;;;;;;21.95;67.21;95041.44;4134590;28;20203;-65
2022/07/03 01:42:33;;;;;;;13.75;10.52;;;;;;;22.08;67.19;95046.63;4145268;28;20049;-67
2022/07/03 01:44:38;;;;;;;14.57;10.75;;;;;;;22.13;66.84;95037.94;4134736;28;20038;-66
2022/07/03 01:46:42;;;;;;;12.48;10.27;;;;;;;22.16;66.53;95040.19;4139772;28;20057;-65
2022/07/03 01:48:45;;;;;;;13.85;10.38;;;;;;;22.15;66.29;95046.56;4145423;28;20054;-64
2022/07/03 01:50:49;;;;;;;16.58;10.07;;;;;;;22.09;66.64;95050.94;4146495;28;20165;-63
2022/07/03 01:52:52;;;;;;;14.35;10.20;;;;;;;22.11;66.57;95057.91;4146081;28;20046;-65
2022/07/03 01:54:54;;;;;;;12.68;10.38;;;;;;;22.11;66.55;95045.38;4130095;28;20045;-66
2022/07/03 01:56:56;;;;;;;12.98;10.95;;;;;;;22.15;66.65;95043.06;4139724;28;20449;-66
2022/07/03 01:58:59;;;;;;;13.30;10.02;;;;;;;22.18;66.03;95047.97;4137803;28;20138;-66
2022/07/03 02:01:26;;;;;;;12.82;10.02;;;;;;;22.17;66.50;95054.34;4130542;28;20457;-66
2022/07/03 02:04:11;;;;;;;14.57;10.27;;;;;;;22.18;66.43;95045.31;4129458;28;20041;-64
2022/07/03 02:06:37;;;;;;;14.18;10.10;;;;;;;22.18;66.15;95050.66;4142580;28;20093;-65
2022/07/03 02:08:44;;;;;;;11.35;9.82;;;;;;;22.19;66.23;95055.75;4135386;28;20050;-64
2022/07/03 02:11:17;;;;;;;12.43;10.30;;;;;;;22.17;66.48;95046.34;4146689;28;20107;-64
2022/07/03 02:13:23;;;;;;;12.23;9.90;;;;;;;22.20;66.07;95045.88;4133778;28;20104;-65
2022/07/03 02:15:32;;;;;;;14.82;10.30;;;;;;;22.21;66.23;95044.84;4144713;28;20065;-66
2022/07/03 02:17:42;;;;;;;12.63;10.95;;;;;;;22.20;66.14;95043.22;4131501;28;20052;-65
2022/07/03 02:19:51;;;;;;;13.20;10.38;;;;;;;22.23;65.79;95048.16;4136427;28;20473;-65
2022/07/03 02:21:54;;;;;;;11.68;10.27;;;;;;;22.24;66.20;95049.75;4142530;28;20100;-65
2022/07/03 02:24:01;;;;;;;13.00;10.15;;;;;;;22.26;65.84;95051.19;4144882;28;20249;-63
2022/07/03 02:26:06;;;;;;;16.17;9.80;;;;;;;22.29;65.73;95052.59;4146929;28;20486;-65
2022/07/03 02:28:14;;;;;;;12.07;10.25;;;;;;;22.31;65.38;95049.72;4139280;28;20050;-66
2022/07/03 02:30:16;;;;;;;12.70;10.48;;;;;;;22.25;66.03;95048.75;4130325;28;20537;-64
2022/07/03 02:32:21;;;;;;;12.00;9.90;;;;;;;22.21;65.97;95048.34;4131683;28;20057;-64
2022/07/03 02:34:24;;;;;;;12.77;10.27;;;;;;;22.19;65.85;95047.75;4141822;28;20502;-68
2022/07/03 02:36:29;;;;;;;11.55;10.38;;;;;;;22.22;65.92;95051.81;4129165;28;20054;-65
2022/07/03 02:38:31;;;;;;;14.95;10.43;;;;;;;22.17;65.96;95049.00;4135060;28;20263;-63
2022/07/03 02:40:39;;;;;;;11.45;10.15;;;;;;;22.18;65.97;95048.78;4143422;28;20053;-66
2022/07/03 02:43:16;;;;;;;11.95;10.35;;;;;;;22.18;65.63;95046.13;4133805;28;20054;-65
2022/07/03 02:45:18;;;;;;;15.57;12.93;;;;;;;22.13;65.70;95059.28;4142411;28;20050;-64
2022/07/03 02:48:01;;;;;;;14.48;12.73;;;;;;;22.04;66.00;95060.63;4129878;28;20393;-66
2022/07/03 02:50:04;;;;;;;17.88;11.57;;;;;;;22.11;66.13;95055.22;4138380;28;20716;-66
2022/07/03 02:52:18;;;;;;;15.27;12.68;;;;;;;22.18;65.94;95053.31;4142146;28;20200;-64
2022/07/03 02:54:19;;;;;;;14.98;11.80;;;;;;;22.22;65.55;95059.81;4142194;28;20046;-66
2022/07/03 02:56:42;;;;;;;14.82;12.13;;;;;;;22.24;65.78;95057.78;4137678;28;20149;-66
2022/07/03 02:58:58;;;;;;;14.73;10.77;;;;;;;22.28;65.22;95062.47;4137822;28;20053;-67
2022/07/03 03:01:15;;;;;;;16.48;11.35;;;;;;;22.31;65.43;95069.19;4139274;28;20468;-65
2022/07/03 03:03:22;;;;;;;14.48;11.05;;;;;;;22.33;65.23;95069.78;4135960;28;20509;-66
2022/07/03 03:05:33;;;;;;;12.30;11.00;;;;;;;22.35;65.33;95073.06;4142197;28;20108;-66
2022/07/03 03:08:07;;;;;;;13.05;11.23;;;;;;;22.33;64.69;95069.78;4141290;28;20124;-66
2022/07/03 03:10:09;;;;;;;;;;;;;;;22.25;65.45;95075.44;4141786;28;20046;-65
2022/07/03 03:12:12;;;;;;;13.73;11.23;;;;;;;22.16;65.34;95076.75;4130881;28;19922;-65
2022/07/03 03:14:19;;;;;;;13.88;11.45;;;;;;;22.03;65.84;95073.16;4132411;28;20061;-65
2022/07/03 03:16:21;;;;;;;12.80;10.80;;;;;;;22.04;66.22;95077.44;4144622;28;20061;-65
2022/07/03 03:18:27;;;;;;;14.35;11.02;;;;;;;22.09;65.67;95074.94;4136836;28;20065;-66
2022/07/03 03:20:35;;;;;;;14.30;10.65;;;;;;;22.17;65.36;95081.03;4137618;28;20121;-66
2022/07/03 03:22:44;;;;;;;13.70;10.95;;;;;;;22.25;65.21;95080.78;4134069;28;20481;-65
2022/07/03 03:24:46;;;;;;;13.32;11.00;;;;;;;22.24;65.43;95074.63;4131257;28;20050;-66
2022/07/03 03:26:48;;;;;;;12.57;11.23;;;;;;;22.31;65.11;95087.06;4137995;28;20058;-65
2022/07/03 03:28:51;;;;;;;15.00;10.77;;;;;;;22.32;64.83;95081.50;4144955;28;20111;-64
2022/07/03 03:30:53;;;;;;;14.43;10.93;;;;;;;22.26;65.46;95080.56;4129879;28;20046;-64
2022/07/03 03:32:55;;;;;;;14.48;10.32;;;;;;;22.19;65.56;95081.63;4128785;28;20413;-65
2022/07/03 03:34:59;;;;;;;12.65;11.35;;;;;;;22.16;65.62;95076.75;4140849;28;20091;-65
2022/07/03 03:37:01;;;;;;;14.10;11.77;;;;;;;22.08;65.77;95083.16;4139000;28;20056;-65
2022/07/03 03:39:03;;;;;;;14.00;10.63;;;;;;;21.99;66.21;95077.31;4131437;28;20050;-64
2022/07/03 03:41:05;;;;;;;14.70;11.18;;;;;;;21.98;66.11;95077.53;4132548;28;20049;-67
2022/07/03 03:43:07;;;;;;;13.07;11.10;;;;;;;21.97;66.43;95075.91;4149035;28;20053;-65
2022/07/03 03:45:10;;;;;;;13.15;10.93;;;;;;;22.00;66.37;95068.25;4129848;28;20513;-64
2022/07/03 03:47:11;;;;;;;15.80;12.18;;;;;;;22.10;66.03;95078.44;4135356;28;20058;-64
2022/07/03 03:49:14;;;;;;;13.13;11.48;;;;;;;22.15;65.48;95083.09;4134054;28;20482;-65
2022/07/03 03:51:16;;;;;;;13.27;11.50;;;;;;;22.20;65.65;95083.22;4129732;28;20042;-65
2022/07/03 03:53:19;;;;;;;13.98;11.30;;;;;;;22.25;65.47;95089.59;4142936;28;20124;-64
2022/07/03 03:55:21;;;;;;;14.27;11.70;;;;;;;22.22;65.24;95086.50;4131851;28;20462;-65
2022/07/03 03:57:24;;;;;;;12.60;11.38;;;;;;;22.28;65.20;95099.00;4133365;28;20050;-65
2022/07/03 03:59:25;;;;;;;15.70;11.02;;;;;;;22.36;65.15;95085.34;4144170;28;20114;-66
2022/07/03 04:01:28;;;;;;;12.98;11.02;;;;;;;22.51;64.45;95092.19;4144322;28;20050;-67
2022/07/03 04:03:31;;;;;;;14.15;11.35;;;;;;;22.58;64.12;95082.22;4143399;28;20064;-64
2022/07/03 04:05:33;;;;;;;21.48;11.18;;;;;;;22.66;64.10;95092.59;4136304;28;20100;-65
2022/07/03 04:07:35;;;;;;;13.00;10.70;;;;;;;22.70;63.77;95085.78;4128729;28;20062;-64
2022/07/03 04:09:36;;;;;;;13.82;11.15;;;;;;;22.75;63.79;95093.09;4137340;28;20050;-65
2022/07/03 04:11:38;;;;;;;12.52;10.73;;;;;;;22.75;63.53;95087.75;4143094;28;20053;-65
2022/07/03 04:13:40;;;;;;;14.88;11.20;;;;;;;22.54;63.90;95089.84;4131214;28;20050;-65
2022/07/03 04:15:42;;;;;;;12.30;10.98;;;;;;;22.57;64.19;95083.28;4134195;28;20112;-65
2022/07/03 04:17:44;;;;;;;11.57;10.32;;;;;;;22.60;64.06;95077.47;4133232;28;20348;-66
2022/07/03 04:19:46;;;;;;;15.10;10.73;;;;;;;22.66;63.49;95080.06;4139364;28;20065;-64
2022/07/03 04:21:49;;;;;;;16.27;11.05;;;;;;;22.75;63.33;95077.09;4146861;28;20056;-63
2022/07/03 04:23:51;;;;;;;12.45;10.93;;;;;;;22.87;62.65;95075.28;4140716;28;20115;-65
2022/07/03 04:25:53;;;;;;;11.55;10.40;;;;;;;22.94;62.56;95070.66;4140717;28;20449;-64
2022/07/03 04:27:55;;;;;;;12.68;10.90;;;;;;;22.98;62.23;95074.50;4145111;28;20489;-68
2022/07/03 04:30:22;;;;;;;14.57;11.45;;;;;;;23.04;62.23;95070.97;4138243;28;20117;-65
2022/07/03 04:32:24;;;;;;;12.43;11.13;;;;;;;23.08;61.80;95068.63;4132966;28;20511;-66
2022/07/03 04:34:26;;;;;;;13.32;12.02;;;;;;;23.14;61.83;95077.59;4134564;28;20046;-68
2022/07/03 04:36:28;;;;;;;14.95;12.85;;;;;;;23.19;61.54;95072.38;4141851;28;20058;-65
2022/07/03 04:38:31;;;;;;;16.33;12.23;;;;;;;23.22;61.62;95072.75;4149433;28;20061;-64
2022/07/03 04:40:33;;;;;;;15.32;13.18;;;;;;;23.28;61.65;95071.03;4150741;28;20144;-65
2022/07/03 04:42:35;;;;;;;16.38;12.55;;;;;;;23.29;61.54;95073.44;4132686;28;20047;-65
2022/07/03 04:44:41;;;;;;;15.88;12.55;;;;;;;23.22;61.99;95077.28;4131995;28;20136;-65
2022/07/03 04:46:43;;;;;;;14.45;12.10;;;;;;;23.21;61.83;95075.63;4138002;28;20065;-66
2022/07/03 04:48:45;;;;;;;14.55;12.60;;;;;;;23.24;61.87;95083.22;4137861;28;20057;-65
2022/07/03 04:50:47;;;;;;;13.60;12.20;;;;;;;23.24;61.86;95081.34;4132219;28;20065;-63
2022/07/03 04:52:49;;;;;;;15.60;12.63;;;;;;;23.23;61.50;95082.41;4150763;28;20111;-65
2022/07/03 04:54:51;;;;;;;15.82;12.25;;;;;;;23.27;61.63;95075.56;4139959;28;20058;-65
2022/07/03 04:56:53;;;;;;;13.68;12.13;;;;;;;23.15;61.74;95080.06;4150570;28;20049;-65
2022/07/03 04:58:55;;;;;;;14.00;12.55;;;;;;;22.52;63.29;95077.78;4136811;28;20139;-62
2022/07/03 05:00:56;;;;;;;20.20;12.80;;;;;;;22.25;64.73;95083.44;4131913;28;20078;-64
2022/07/03 05:03:00;;;;;;;15.18;12.30;;;;;;;22.32;64.80;95078.81;4126553;28;20129;-66
2022/07/03 05:05:03;;;;;;;17.65;12.70;;;;;;;22.38;64.66;95085.13;4128360;28;20446;-64
2022/07/03 05:07:05;;;;;;;15.75;12.10;;;;;;;22.50;64.38;95078.03;4132541;28;20058;-65
2022/07/03 05:09:07;;;;;;;14.05;12.07;;;;;;;22.66;63.77;95073.91;4134409;28;20053;-64
2022/07/03 05:11:09;;;;;;;12.32;10.85;;;;;;;22.82;62.84;95077.81;4140536;28;20053;-64
2022/07/03 05:13:10;;;;;;;13.93;11.05;;;;;;;23.03;62.11;95074.66;4134796;28;20047;-65
2022/07/03 05:15:12;;;;;;;15.77;12.27;;;;;;;23.21;61.26;95070.28;4134473;28;20451;-65
2022/07/03 05:17:17;;;;;;;15.73;11.40;;;;;;;23.35;60.84;95069.03;4138291;28;20054;-66
2022/07/03 05:19:19;;;;;;;13.23;11.23;;;;;;;23.52;60.77;95078.03;4146192;28;20395;-64
2022/07/03 05:21:21;;;;;;;15.18;11.90;;;;;;;23.65;60.59;95074.31;4148425;28;20460;-65
2022/07/03 05:23:23;;;;;;;21.65;11.38;;;;;;;23.72;59.93;95079.56;4135151;28;20089;-67
2022/07/03 05:25:25;;;;;;;12.60;10.85;;;;;;;23.76;59.70;95071.91;4137530;28;20112;-66
2022/07/03 05:27:27;;;;;;;13.10;10.65;;;;;;;23.86;59.49;95074.84;4140397;28;20411;-66
2022/07/03 05:29:29;;;;;;;14.80;11.15;;;;;;;23.94;59.32;95073.66;4142140;28;20050;-64
2022/07/03 05:31:36;;;;;;;17.48;11.48;;;;;;;24.02;58.44;95068.75;4140640;28;20402;-65
2022/07/03 05:33:39;;;;;;;13.40;11.57;;;;;;;24.13;58.55;95077.81;4141925;28;20054;-63
2022/07/03 05:35:41;;;;;;;12.60;11.30;;;;;;;24.18;57.95;95072.59;4136737;28;20085;-63
2022/07/03 05:37:43;;;;;;;12.73;11.30;;;;;;;24.23;57.64;95074.56;4145930;28;20132;-67
2022/07/03 05:39:45;;;;;;;15.77;11.65;;;;;;;24.30;57.28;95070.69;4145329;28;20050;-64
2022/07/03 05:41:47;;;;;;;12.43;10.85;;;;;;;24.33;57.28;95080.16;4137856;28;20058;-67
2022/07/03 05:43:49;;;;;;;12.02;10.35;;;;;;;24.26;57.27;95090.16;4130564;28;20085;-64
2022/07/03 05:45:51;;;;;;;13.50;10.75;;;;;;;24.08;58.09;95083.88;4140254;28;20478;-65
2022/07/03 05:47:53;;;;;;;16.50;11.57;;;;;;;23.86;58.70;95082.88;4135302;28;20080;-66
2022/07/03 05:49:55;;;;;;;12.73;10.60;;;;;;;23.79;59.09;95093.69;4145640;28;20109;-66
2022/07/03 05:51:57;;;;;;;12.40;10.75;;;;;;;23.33;59.55;95089.03;4137305;28;20113;-66
2022/07/03 05:53:58;;;;;;;13.75;11.52;;;;;;;23.09;60.58;95095.13;4146808;28;20652;-65
2022/07/03 05:56:00;;;;;;;12.73;10.25;;;;;;;23.06;60.94;95090.25;4144048;28;20049;-68
2022/07/03 05:58:02;;;;;;;13.27;10.40;;;;;;;23.12;61.06;95090.38;4137179;28;20050;-64
2022/07/03 06:00:05;;;;;;;15.32;11.00;;;;;;;23.19;60.25;95091.91;4147327;28;20042;-65
2022/07/03 06:02:07;;;;;;;12.83;10.63;;;;;;;23.12;60.94;95085.03;4147292;28;20179;-65
2022/07/03 06:04:08;;;;;;;12.43;10.75;;;;;;;23.17;60.85;95091.34;4132391;28;20054;-65
2022/07/03 06:06:11;;;;;;;13.55;11.13;;;;;;;23.37;60.45;95090.22;4145178;28;20052;-67
2022/07/03 06:08:12;;;;;;;12.07;10.32;;;;;;;23.31;59.83;95087.41;4133946;28;20053;-65
2022/07/03 06:10:14;;;;;;;14.48;11.25;;;;;;;23.45;59.64;95089.88;4134247;28;20050;-65
2022/07/03 06:12:16;;;;;;;12.57;10.38;;;;;;;23.46;59.49;95084.28;4137036;28;20041;-65
2022/07/03 06:14:18;;;;;;;12.90;10.90;;;;;;;23.68;59.04;95087.25;4147138;28;20539;-65
2022/07/03 06:16:20;;;;;;;12.15;10.77;;;;;;;23.77;59.08;95086.91;4142034;28;20406;-65
2022/07/03 06:18:22;;;;;;;13.52;10.63;;;;;;;23.95;58.67;95086.00;4130617;28;20526;-64
2022/07/03 06:20:24;;;;;;;14.65;11.15;;;;;;;24.10;58.10;95081.78;4154409;28;20402;-65
2022/07/03 06:22:26;;;;;;;13.38;10.63;;;;;;;24.21;57.42;95087.38;4138333;28;20556;-65
2022/07/03 06:24:28;;;;;;;17.20;11.02;;;;;;;24.28;57.48;95082.69;4141341;28;20069;-66
2022/07/03 06:26:30;;;;;;;13.43;10.45;;;;;;;24.49;56.83;95098.16;4142528;28;20402;-67
2022/07/03 06:28:32;;;;;;;15.85;10.48;;;;;;;24.58;56.86;95089.78;4146694;28;20058;-64
2022/07/03 06:30:33;;;;;;;16.00;9.90;;;;;;;24.68;56.85;95087.31;4129655;28;20054;-64
2022/07/03 06:32:35;;;;;;;19.48;10.25;;;;;;;24.85;56.45;95084.69;4134036;28;20054;-66
2022/07/03 06:34:37;;;;;;;13.38;9.55;;;;;;;25.03;56.22;95087.16;4143971;28;20057;-64
2022/07/03 06:36:39;;;;;;;16.40;9.70;;;;;;;25.17;55.03;95085.00;4145012;28;20054;-64
2022/07/03 06:38:40;;;;;;;12.70;9.50;;;;;;;25.32;54.65;95089.88;4134968;28;20061;-67
2022/07/03 06:40:42;;;;;;;15.77;9.15;;;;;;;25.44;54.29;95087.09;4134180;28;20062;-67
2022/07/03 06:42:44;;;;;;;12.38;9.75;;;;;;;25.57;54.27;95089.47;4142174;28;20049;-66
2022/07/03 06:44:46;;;;;;;14.00;9.27;;;;;;;25.68;53.85;95087.75;4146331;28;20490;-64
2022/07/03 06:46:53;;;;;;;12.35;8.95;;;;;;;25.72;53.77;95087.03;4132888;28;20073;-65
2022/07/03 06:48:55;;;;;;;12.85;9.00;;;;;;;25.83;54.14;95081.81;4129161;28;20046;-65
2022/07/03 06:50:56;;;;;;;12.30;10.05;;;;;;;25.90;53.43;95086.00;4139922;28;20046;-64
2022/07/03 06:52:59;;;;;;;14.77;9.57;;;;;;;25.95;53.46;95080.69;4139142;28;20054;-65
2022/07/03 06:55:01;;;;;;;13.57;10.00;;;;;;;25.81;52.62;95087.41;4138124;28;20426;-65
2022/07/03 06:57:03;;;;;;;14.00;9.82;;;;;;;25.71;53.37;95085.41;4141499;28;20057;-64
2022/07/03 06:59:05;;;;;;;10.55;9.40;;;;;;;25.44;53.55;95092.47;4133722;28;20461;-66
2022/07/03 07:01:06;;;;;;;10.43;9.32;;;;;;;25.22;54.42;95089.69;4138957;28;20050;-65
2022/07/03 07:03:08;;;;;;;14.02;8.95;;;;;;;25.22;54.34;95082.44;4128783;28;20054;-65
2022/07/03 07:05:10;;;;;;;10.15;9.05;;;;;;;25.38;54.66;95083.50;4138528;28;20461;-67
2022/07/03 07:07:12;;;;;;;13.98;8.60;;;;;;;25.60;54.01;95075.56;4145740;28;20104;-65
2022/07/03 07:09:14;;;;;;;12.30;9.05;;;;;;;25.85;53.48;95079.69;4143186;28;20467;-67
2022/07/03 07:11:16;;;;;;;13.30;8.85;;;;;;;26.02;52.65;95077.84;4142800;28;20054;-65
2022/07/03 07:13:18;;;;;;;10.70;9.23;;;;;;;26.09;52.47;95077.66;4139373;28;20471;-65
2022/07/03 07:15:20;;;;;;;15.20;9.52;;;;;;;25.94;53.17;95071.03;4129882;28;20069;-64
2022/07/03 07:17:22;;;;;;;12.68;10.05;;;;;;;26.03;52.68;95070.59;4141162;28;20073;-67
2022/07/03 07:19:24;;;;;;;13.25;10.70;;;;;;;25.83;52.56;95074.56;4139996;28;20065;-65
2022/07/03 07:21:26;;;;;;;12.32;10.20;;;;;;;25.79;52.81;95075.31;4140465;28;20190;-66
2022/07/03 07:23:27;;;;;;;11.27;9.57;;;;;;;25.82;53.50;95069.47;4141248;28;20398;-66
2022/07/03 07:25:29;;;;;;;13.27;9.85;;;;;;;25.91;53.16;95066.13;4144361;28;20066;-67
2022/07/03 07:27:31;;;;;;;12.73;10.00;;;;;;;26.03;53.03;95057.16;4136707;28;20054;-66
2022/07/03 07:29:33;;;;;;;11.57;9.80;;;;;;;26.29;52.64;95061.84;4136227;28;20474;-65
2022/07/03 07:31:35;;;;;;;9.52;8.55;;;;;;;26.48;51.70;95065.03;4131062;28;20058;-66
2022/07/03 07:33:37;;;;;;;10.68;9.30;;;;;;;26.64;51.45;95052.63;4135463;28;20085;-66
2022/07/03 07:35:39;;;;;;;14.63;10.50;;;;;;;26.79;50.61;95053.88;4134479;28;20422;-67
2022/07/03 07:37:40;;;;;;;13.02;10.05;;;;;;;26.82;50.66;95053.34;4128960;28;20117;-66
2022/07/03 07:39:42;;;;;;;11.43;9.98;;;;;;;26.88;51.13;95053.16;4138482;28;20056;-65
2022/07/03 07:41:45;;;;;;;13.30;9.80;;;;;;;26.81;50.83;95055.22;4144677;28;20513;-65
2022/07/03 07:43:47;;;;;;;16.27;10.90;;;;;;;26.20;51.85;95059.81;4144065;28;20081;-66
2022/07/03 07:45:48;;;;;;;13.10;10.27;;;;;;;25.91;52.77;95059.97;4132861;28;20046;-68
2022/07/03 07:47:50;;;;;;;12.30;9.77;;;;;;;26.01;52.43;95062.81;4116859;28;20075;-65
2022/07/03 07:49:52;;;;;;;17.98;9.90;;;;;;;26.05;52.50;95061.25;4130862;28;20050;-65
2022/07/03 07:51:54;;;;;;;10.73;9.32;;;;;;;26.03;52.04;95065.22;4131810;28;20050;-64
2022/07/03 07:53:57;;;;;;;12.65;9.85;;;;;;;25.92;52.79;95057.03;4137428;28;20322;-66
2022/07/03 07:55:59;;;;;;;10.93;9.10;;;;;;;25.78;52.78;95053.03;4132722;28;20440;-64
2022/07/03 07:58:00;;;;;;;19.13;9.73;;;;;;;25.51;53.62;95052.88;4134259;28;20124;-66
2022/07/03 08:00:14;;;;;;;11.40;9.27;;;;;;;25.83;53.33;95055.78;4131612;28;20053;-67
2022/07/03 08:06:57;;;;;;;14.90;8.40;;;;;;;25.83;51.82;95047.72;4139662;28;20104;-66
2022/07/03 08:08:59;;;;;;;12.68;8.82;;;;;;;26.02;51.88;95045.63;4136147;28;20700;-65
2022/07/03 08:11:01;;;;;;;14.60;8.57;;;;;;;26.20;52.27;95043.72;4140597;28;20313;-67
2022/07/03 08:13:03;;;;;;;13.38;8.75;;;;;;;26.41;50.75;95045.59;4131797;28;20231;-65
2022/07/03 08:15:05;;;;;;;9.20;7.93;;;;;;;26.44;50.77;95039.75;4142897;28;20585;-66
2022/07/03 08:17:07;;;;;;;9.43;7.78;;;;;;;26.23;50.67;95040.53;4131348;28;20046;-66
2022/07/03 08:19:09;;;;;;;11.95;8.45;;;;;;;25.84;51.74;95044.00;4137558;28;20053;-65
2022/07/03 08:21:11;;;;;;;9.10;8.25;;;;;;;25.85;51.44;95039.44;4145897;28;20046;-65
2022/07/03 08:23:13;;;;;;;9.45;8.45;;;;;;;26.00;51.78;95046.94;4142150;28;20746;-65
2022/07/03 08:25:15;;;;;;;10.13;7.60;;;;;;;26.38;51.76;95042.63;4150318;28;20188;-65
2022/07/03 08:27:17;;;;;;;15.35;7.97;;;;;;;26.65;49.51;95040.81;4146593;28;20046;-66
2022/07/03 08:29:19;;;;;;;10.73;8.20;;;;;;;26.82;49.56;95043.41;4144815;28;20049;-64
2022/07/03 08:31:21;;;;;;;10.60;7.57;;;;;;;27.13;49.14;95043.75;4139924;28;20832;-65
2022/07/03 08:33:23;;;;;;;9.07;7.97;;;;;;;27.46;48.36;95044.59;4141797;28;20116;-65
2022/07/03 08:35:26;;;;;;;10.52;7.57;;;;;;;27.66;47.59;95044.75;4145600;28;20054;-66
2022/07/03 08:37:28;;;;;;;9.25;8.00;;;;;;;27.70;47.77;95051.22;4143438;28;20401;-66
2022/07/03 08:39:30;;;;;;;10.43;7.28;;;;;;;27.80;47.70;95042.41;4143642;28;20398;-65
2022/07/03 08:41:33;;;;;;;11.32;7.38;;;;;;;27.94;47.42;95042.78;4145104;28;20089;-65
2022/07/03 08:43:36;;;;;;;14.43;7.18;;;;;;;27.98;47.10;95044.75;4153689;28;20455;-65
2022/07/03 08:45:38;;;;;;;8.90;7.95;;;;;;;27.94;46.49;95040.94;4134787;28;20528;-64
2022/07/03 08:47:43;;;;;;;9.27;7.80;;;;;;;27.81;46.64;95035.16;4131054;28;20058;-64
2022/07/03 08:49:45;;;;;;;10.65;7.75;;;;;;;27.88;47.47;95033.91;4132084;28;20111;-64
2022/07/03 08:51:47;;;;;;;10.35;7.28;;;;;;;28.03;46.17;95030.50;4135486;28;20309;-65
2022/07/03 08:53:50;;;;;;;9.00;6.97;;;;;;;28.03;45.84;95030.50;4136739;28;20060;-66
2022/07/03 08:55:52;;;;;;;12.90;7.60;;;;;;;28.10;46.83;95025.66;4131320;28;20057;-65
2022/07/03 08:57:54;;;;;;;13.93;6.88;;;;;;;28.29;46.08;95028.72;4142009;28;20069;-66
2022/07/03 08:59:57;;;;;;;8.95;6.47;;;;;;;28.47;45.36;95024.75;4143564;28;20495;-65
2022/07/03 09:01:59;;;;;;;10.70;7.28;;;;;;;28.43;44.32;95031.75;4143734;28;20046;-66
2022/07/03 09:04:01;;;;;;;7.85;6.82;;;;;;;28.42;44.51;95024.75;4142812;28;20069;-65
2022/07/03 09:06:03;;;;;;;8.10;7.18;;;;;;;28.22;45.49;95024.63;4143662;28;20081;-63
2022/07/03 09:08:09;;;;;;;7.38;6.53;;;;;;;28.04;44.23;95025.91;4142207;28;20112;-67
2022/07/03 09:10:13;;;;;;;7.43;6.40;;;;;;;27.99;44.38;95026.69;4130654;28;20484;-65
2022/07/03 09:12:15;;;;;;;9.40;5.95;;;;;;;28.24;43.62;95026.00;4137728;28;20053;-64
2022/07/03 09:14:18;;;;;;;7.80;5.95;;;;;;;28.46;43.50;95012.38;4128311;28;20105;-69
2022/07/03 09:16:20;;;;;;;8.25;5.93;;;;;;;28.67;43.38;95012.44;4139977;28;20097;-67
2022/07/03 09:18:41;;;;;;;6.32;5.65;;;;;;;28.87;42.81;95020.59;4127811;28;20505;-66
2022/07/03 09:20:44;;;;;;;7.72;5.43;;;;;;;29.05;41.81;95010.38;4135026;28;20050;-65
2022/07/03 09:22:46;;;;;;;5.78;4.90;;;;;;;29.28;41.13;95012.59;4135762;28;20062;-66
2022/07/03 09:24:49;;;;;;;8.52;4.95;;;;;;;29.38;40.96;95015.31;4127481;28;20062;-67
2022/07/03 09:26:52;;;;;;;10.02;5.75;;;;;;;29.37;39.84;95010.97;4140403;28;20123;-67
2022/07/03 09:28:55;;;;;;;6.78;4.78;;;;;;;29.45;40.17;95011.50;4131760;28;20453;-66
2022/07/03 09:31:00;;;;;;;8.73;5.32;;;;;;;29.54;40.52;95018.00;4138574;28;20042;-65
2022/07/03 09:33:02;;;;;;;5.75;4.90;;;;;;;29.45;39.85;95006.09;4126301;28;20050;-66
2022/07/03 09:35:23;;;;;;;5.07;4.55;;;;;;;29.42;39.38;95003.97;4130002;28;20050;-64
2022/07/03 09:37:25;;;;;;;8.65;5.25;;;;;;;29.47;40.15;95007.47;4138791;28;20049;-65
2022/07/03 09:39:30;;;;;;;7.00;5.03;;;;;;;29.60;40.45;95014.22;4128012;28;20046;-66
2022/07/03 09:41:59;;;;;;;6.13;4.65;;;;;;;29.84;39.69;95003.69;4135311;28;20493;-64